sensor_id;sensor_type;location;lat;lon;timestamp;P1;durP1;ratioP1;P2;durP2;ratioP2
14118;SDS011;7138;49.246;9.100;2022-08-19T00:02:22;14.10;;;12.27;;
14118;SDS011;7138;49.246;9.100;2022-08-19T00:04:48;15.35;;;11.95;;
14118;SDS011;7138;49.246;9.100;2022-08-19T00:07:20;13.52;;;12.13;;
14118;SDS011;7138;49.246;9.100;2022-08-19T00:09:46;13.63;;;12.13;;
14118;SDS011;7138;49.246;9.100;2022-08-19T00:12:12;15.10;;;13.13;;
14118;SDS011;7138;49.246;9.100;2022-08-19T00:14:38;15.18;;;13.60;;
14118;SDS011;7138;49.246;9.100;2022-08-19T00:17:07;16.38;;;12.38;;
14118;SDS011;7138;49.246;9.100;2022-08-19T00:19:35;15.20;;;13.23;;
14118;SDS011;7138;49.246;9.100;2022-08-19T00:22:02;18.33;;;11.77;;
14118;SDS011;7138;49.246;9.100;2022-08-19T00:24:30;16.58;;;12.50;;
14118;SDS011;7138;49.246;9.100;2022-08-19T00:26:56;14.45;;;12.35;;
14118;SDS011;7138;49.246;9.100;2022-08-19T00:29:24;14.98;;;12.82;;
14118;SDS011;7138;49.246;9.100;2022-08-19T00:31:50;15.25;;;13.65;;
14118;SDS011;7138;49.246;9.100;2022-08-19T00:34:22;14.85;;;13.25;;
14118;SDS011;7138;49.246;9.100;2022-08-19T00:36:49;14.77;;;12.63;;
14118;SDS011;7138;49.246;9.100;2022-08-19T00:39:15;15.13;;;12.68;;
14118;SDS011;7138;49.246;9.100;2022-08-19T00:41:42;13.55;;;12.10;;
14118;SDS011;7138;49.246;9.100;2022-08-19T00:44:13;15.77;;;12.75;;
14118;SDS011;7138;49.246;9.100;2022-08-19T00:46:44;15.05;;;12.77;;
14118;SDS011;7138;49.246;9.100;2022-08-19T00:49:13;14.57;;;12.80;;
14118;SDS011;7138;49.246;9.100;2022-08-19T00:51:46;16.42;;;13.77;;
14118;SDS011;7138;49.246;9.100;2022-08-19T00:54:17;13.82;;;12.30;;
14118;SDS011;7138;49.246;9.100;2022-08-19T00:56:45;15.02;;;12.60;;
14118;SDS011;7138;49.246;9.100;2022-08-19T00:59:11;15.25;;;13.52;;
14118;SDS011;7138;49.246;9.100;2022-08-19T01:01:40;15.20;;;13.10;;
14118;SDS011;7138;49.246;9.100;2022-08-19T01:04:09;15.45;;;13.15;;
14118;SDS011;7138;49.246;9.100;2022-08-19T01:06:35;16.92;;;12.70;;
14118;SDS011;7138;49.246;9.100;2022-08-19T01:09:07;15.82;;;13.38;;
14118;SDS011;7138;49.246;9.100;2022-08-19T01:11:34;14.95;;;13.07;;
14118;SDS011;7138;49.246;9.100;2022-08-19T01:14:05;15.07;;;13.20;;
14118;SDS011;7138;49.246;9.100;2022-08-19T01:16:34;15.55;;;13.23;;
14118;SDS011;7138;49.246;9.100;2022-08-19T01:19:02;15.20;;;13.15;;
14118;SDS011;7138;49.246;9.100;2022-08-19T01:21:39;15.20;;;13.55;;
14118;SDS011;7138;49.246;9.100;2022-08-19T01:24:14;15.85;;;13.32;;
14118;SDS011;7138;49.246;9.100;2022-08-19T01:26:43;15.77;;;13.93;;
14118;SDS011;7138;49.246;9.100;2022-08-19T01:29:11;15.38;;;13.57;;
14118;SDS011;7138;49.246;9.100;2022-08-19T01:31:37;15.57;;;13.35;;
14118;SDS011;7138;49.246;9.100;2022-08-19T01:34:04;17.45;;;14.63;;
14118;SDS011;7138;49.246;9.100;2022-08-19T01:36:32;17.80;;;14.55;;
14118;SDS011;7138;49.246;9.100;2022-08-19T01:39:03;17.42;;;13.25;;
14118;SDS011;7138;49.246;9.100;2022-08-19T01:41:35;15.95;;;13.57;;
14118;SDS011;7138;49.246;9.100;2022-08-19T01:44:02;18.25;;;15.43;;
14118;SDS011;7138;49.246;9.100;2022-08-19T01:46:29;20.10;;;16.13;;
14118;SDS011;7138;49.246;9.100;2022-08-19T01:48:55;17.33;;;14.70;;
14118;SDS011;7138;49.246;9.100;2022-08-19T01:51:21;19.10;;;16.17;;
14118;SDS011;7138;49.246;9.100;2022-08-19T01:53:47;18.13;;;16.13;;
14118;SDS011;7138;49.246;9.100;2022-08-19T01:56:14;20.05;;;16.38;;
14118;SDS011;7138;49.246;9.100;2022-08-19T01:58:43;24.58;;;16.70;;
14118;SDS011;7138;49.246;9.100;2022-08-19T02:01:15;18.77;;;15.48;;
14118;SDS011;7138;49.246;9.100;2022-08-19T02:03:42;22.10;;;17.88;;
14118;SDS011;7138;49.246;9.100;2022-08-19T02:06:08;18.13;;;15.57;;
14118;SDS011;7138;49.246;9.100;2022-08-19T02:08:34;19.38;;;16.60;;
14118;SDS011;7138;49.246;9.100;2022-08-19T02:11:03;21.50;;;16.25;;
14118;SDS011;7138;49.246;9.100;2022-08-19T02:13:31;21.55;;;17.35;;
14118;SDS011;7138;49.246;9.100;2022-08-19T02:15:58;21.88;;;18.23;;
14118;SDS011;7138;49.246;9.100;2022-08-19T02:18:24;22.52;;;17.13;;
14118;SDS011;7138;49.246;9.100;2022-08-19T02:20:51;23.08;;;17.42;;
14118;SDS011;7138;49.246;9.100;2022-08-19T02:23:18;20.60;;;17.83;;
14118;SDS011;7138;49.246;9.100;2022-08-19T02:25:44;20.70;;;17.27;;
14118;SDS011;7138;49.246;9.100;2022-08-19T02:28:12;21.63;;;17.93;;
14118;SDS011;7138;49.246;9.100;2022-08-19T02:30:40;22.15;;;17.45;;
14118;SDS011;7138;49.246;9.100;2022-08-19T02:33:08;19.85;;;17.25;;
14118;SDS011;7138;49.246;9.100;2022-08-19T02:35:34;19.55;;;16.38;;
14118;SDS011;7138;49.246;9.100;2022-08-19T02:38:00;24.17;;;17.27;;
14118;SDS011;7138;49.246;9.100;2022-08-19T02:40:47;21.08;;;17.50;;
14118;SDS011;7138;49.246;9.100;2022-08-19T02:43:16;21.33;;;16.98;;
14118;SDS011;7138;49.246;9.100;2022-08-19T02:45:45;20.27;;;16.40;;
14118;SDS011;7138;49.246;9.100;2022-08-19T02:48:14;19.40;;;16.45;;
14118;SDS011;7138;49.246;9.100;2022-08-19T02:50:42;21.58;;;17.45;;
14118;SDS011;7138;49.246;9.100;2022-08-19T02:53:09;22.33;;;17.80;;
14118;SDS011;7138;49.246;9.100;2022-08-19T02:55:35;22.58;;;17.98;;
14118;SDS011;7138;49.246;9.100;2022-08-19T02:58:06;25.00;;;18.80;;
14118;SDS011;7138;49.246;9.100;2022-08-19T03:00:32;24.67;;;18.48;;
14118;SDS011;7138;49.246;9.100;2022-08-19T03:02:58;24.17;;;17.73;;
14118;SDS011;7138;49.246;9.100;2022-08-19T03:05:26;23.88;;;18.15;;
14118;SDS011;7138;49.246;9.100;2022-08-19T03:07:52;21.33;;;17.25;;
14118;SDS011;7138;49.246;9.100;2022-08-19T03:10:18;22.67;;;17.55;;
14118;SDS011;7138;49.246;9.100;2022-08-19T03:12:45;25.63;;;18.73;;
14118;SDS011;7138;49.246;9.100;2022-08-19T03:15:11;22.52;;;18.17;;
14118;SDS011;7138;49.246;9.100;2022-08-19T03:17:37;25.80;;;18.25;;
14118;SDS011;7138;49.246;9.100;2022-08-19T03:20:04;24.10;;;17.88;;
14118;SDS011;7138;49.246;9.100;2022-08-19T03:22:32;21.73;;;16.83;;
14118;SDS011;7138;49.246;9.100;2022-08-19T03:24:58;26.25;;;18.27;;
14118;SDS011;7138;49.246;9.100;2022-08-19T03:27:24;21.77;;;17.92;;
14118;SDS011;7138;49.246;9.100;2022-08-19T03:29:50;25.17;;;19.23;;
14118;SDS011;7138;49.246;9.100;2022-08-19T03:32:19;21.50;;;16.98;;
14118;SDS011;7138;49.246;9.100;2022-08-19T03:34:46;22.15;;;17.75;;
14118;SDS011;7138;49.246;9.100;2022-08-19T03:37:14;21.63;;;17.38;;
14118;SDS011;7138;49.246;9.100;2022-08-19T03:39:41;22.85;;;16.88;;
14118;SDS011;7138;49.246;9.100;2022-08-19T03:42:07;24.15;;;19.05;;
14118;SDS011;7138;49.246;9.100;2022-08-19T03:44:36;20.70;;;16.93;;
14118;SDS011;7138;49.246;9.100;2022-08-19T03:47:03;22.17;;;17.08;;
14118;SDS011;7138;49.246;9.100;2022-08-19T03:49:31;22.40;;;16.80;;
14118;SDS011;7138;49.246;9.100;2022-08-19T03:52:00;24.92;;;16.02;;
14118;SDS011;7138;49.246;9.100;2022-08-19T03:54:27;22.92;;;17.23;;
14118;SDS011;7138;49.246;9.100;2022-08-19T03:56:55;23.80;;;18.38;;
14118;SDS011;7138;49.246;9.100;2022-08-19T03:59:23;21.52;;;17.05;;
14118;SDS011;7138;49.246;9.100;2022-08-19T04:04:18;23.17;;;18.20;;
14118;SDS011;7138;49.246;9.100;2022-08-19T04:06:44;25.33;;;18.60;;
14118;SDS011;7138;49.246;9.100;2022-08-19T04:09:12;25.17;;;19.60;;
14118;SDS011;7138;49.246;9.100;2022-08-19T04:11:39;22.50;;;17.92;;
14118;SDS011;7138;49.246;9.100;2022-08-19T04:14:11;24.38;;;18.70;;
14118;SDS011;7138;49.246;9.100;2022-08-19T04:16:40;22.35;;;18.08;;
14118;SDS011;7138;49.246;9.100;2022-08-19T04:19:09;23.38;;;18.55;;
14118;SDS011;7138;49.246;9.100;2022-08-19T04:21:35;24.52;;;18.67;;
14118;SDS011;7138;49.246;9.100;2022-08-19T04:24:02;24.83;;;18.75;;
14118;SDS011;7138;49.246;9.100;2022-08-19T04:26:30;20.52;;;16.77;;
14118;SDS011;7138;49.246;9.100;2022-08-19T04:29:00;20.65;;;16.85;;
14118;SDS011;7138;49.246;9.100;2022-08-19T04:31:30;22.48;;;17.23;;
14118;SDS011;7138;49.246;9.100;2022-08-19T04:34:01;22.40;;;16.92;;
14118;SDS011;7138;49.246;9.100;2022-08-19T04:36:33;22.00;;;17.50;;
14118;SDS011;7138;49.246;9.100;2022-08-19T04:39:04;21.60;;;17.73;;
14118;SDS011;7138;49.246;9.100;2022-08-19T04:41:33;22.65;;;17.95;;
14118;SDS011;7138;49.246;9.100;2022-08-19T04:44:18;22.13;;;16.83;;
14118;SDS011;7138;49.246;9.100;2022-08-19T04:46:46;22.90;;;17.30;;
14118;SDS011;7138;49.246;9.100;2022-08-19T04:49:13;22.83;;;15.85;;
14118;SDS011;7138;49.246;9.100;2022-08-19T04:51:42;21.58;;;16.67;;
14118;SDS011;7138;49.246;9.100;2022-08-19T04:54:15;20.63;;;17.55;;
14118;SDS011;7138;49.246;9.100;2022-08-19T04:56:42;21.85;;;16.83;;
14118;SDS011;7138;49.246;9.100;2022-08-19T04:59:08;21.55;;;16.60;;
14118;SDS011;7138;49.246;9.100;2022-08-19T05:01:35;20.52;;;16.55;;
14118;SDS011;7138;49.246;9.100;2022-08-19T05:04:04;20.25;;;16.75;;
14118;SDS011;7138;49.246;9.100;2022-08-19T05:06:32;20.50;;;16.48;;
14118;SDS011;7138;49.246;9.100;2022-08-19T05:08:59;21.77;;;16.70;;
14118;SDS011;7138;49.246;9.100;2022-08-19T05:11:27;21.17;;;16.40;;
14118;SDS011;7138;49.246;9.100;2022-08-19T05:13:56;22.45;;;16.42;;
14118;SDS011;7138;49.246;9.100;2022-08-19T05:16:23;23.80;;;16.15;;
14118;SDS011;7138;49.246;9.100;2022-08-19T05:18:51;19.58;;;15.85;;
14118;SDS011;7138;49.246;9.100;2022-08-19T05:21:38;22.00;;;15.07;;
14118;SDS011;7138;49.246;9.100;2022-08-19T05:24:24;21.55;;;15.70;;
14118;SDS011;7138;49.246;9.100;2022-08-19T05:26:51;18.90;;;14.45;;
14118;SDS011;7138;49.246;9.100;2022-08-19T05:29:21;18.48;;;14.10;;
14118;SDS011;7138;49.246;9.100;2022-08-19T05:31:51;19.13;;;15.57;;
14118;SDS011;7138;49.246;9.100;2022-08-19T05:34:18;18.77;;;15.05;;
14118;SDS011;7138;49.246;9.100;2022-08-19T05:36:48;18.40;;;14.40;;
14118;SDS011;7138;49.246;9.100;2022-08-19T05:39:17;18.20;;;15.10;;
14118;SDS011;7138;49.246;9.100;2022-08-19T05:41:46;20.00;;;15.23;;
14118;SDS011;7138;49.246;9.100;2022-08-19T05:44:15;18.00;;;14.85;;
14118;SDS011;7138;49.246;9.100;2022-08-19T05:46:43;18.92;;;14.32;;
14118;SDS011;7138;49.246;9.100;2022-08-19T05:49:12;20.20;;;15.20;;
14118;SDS011;7138;49.246;9.100;2022-08-19T05:51:40;20.38;;;14.35;;
14118;SDS011;7138;49.246;9.100;2022-08-19T05:54:08;18.42;;;14.50;;
14118;SDS011;7138;49.246;9.100;2022-08-19T05:56:36;17.48;;;14.02;;
14118;SDS011;7138;49.246;9.100;2022-08-19T05:59:03;17.63;;;13.88;;
14118;SDS011;7138;49.246;9.100;2022-08-19T06:01:33;17.00;;;13.25;;
14118;SDS011;7138;49.246;9.100;2022-08-19T06:04:00;18.90;;;13.55;;
14118;SDS011;7138;49.246;9.100;2022-08-19T06:06:26;18.17;;;13.73;;
14118;SDS011;7138;49.246;9.100;2022-08-19T06:08:52;17.75;;;13.45;;
14118;SDS011;7138;49.246;9.100;2022-08-19T06:11:20;15.40;;;12.27;;
14118;SDS011;7138;49.246;9.100;2022-08-19T06:13:57;17.00;;;12.60;;
14118;SDS011;7138;49.246;9.100;2022-08-19T06:16:27;17.02;;;12.88;;
14118;SDS011;7138;49.246;9.100;2022-08-19T06:18:58;16.15;;;12.60;;
14118;SDS011;7138;49.246;9.100;2022-08-19T06:21:27;17.27;;;12.57;;
14118;SDS011;7138;49.246;9.100;2022-08-19T06:23:54;17.67;;;12.98;;
14118;SDS011;7138;49.246;9.100;2022-08-19T06:26:24;14.57;;;11.95;;
14118;SDS011;7138;49.246;9.100;2022-08-19T06:28:51;15.60;;;12.23;;
14118;SDS011;7138;49.246;9.100;2022-08-19T06:31:18;14.75;;;12.38;;
14118;SDS011;7138;49.246;9.100;2022-08-19T06:36:18;16.30;;;12.27;;
14118;SDS011;7138;49.246;9.100;2022-08-19T06:38:47;21.20;;;11.82;;
14118;SDS011;7138;49.246;9.100;2022-08-19T06:41:13;16.98;;;12.32;;
14118;SDS011;7138;49.246;9.100;2022-08-19T06:43:40;15.50;;;12.30;;
14118;SDS011;7138;49.246;9.100;2022-08-19T06:46:11;17.20;;;12.07;;
14118;SDS011;7138;49.246;9.100;2022-08-19T06:48:40;17.17;;;11.73;;
14118;SDS011;7138;49.246;9.100;2022-08-19T06:51:06;19.45;;;11.77;;
14118;SDS011;7138;49.246;9.100;2022-08-19T06:53:32;14.30;;;11.50;;
14118;SDS011;7138;49.246;9.100;2022-08-19T06:55:59;14.93;;;11.85;;
14118;SDS011;7138;49.246;9.100;2022-08-19T06:58:28;16.33;;;11.77;;
14118;SDS011;7138;49.246;9.100;2022-08-19T07:00:58;17.50;;;11.93;;
14118;SDS011;7138;49.246;9.100;2022-08-19T07:03:26;16.05;;;12.20;;
14118;SDS011;7138;49.246;9.100;2022-08-19T07:05:54;13.82;;;11.15;;
14118;SDS011;7138;49.246;9.100;2022-08-19T07:08:20;16.02;;;11.35;;
14118;SDS011;7138;49.246;9.100;2022-08-19T07:10:46;15.00;;;11.68;;
14118;SDS011;7138;49.246;9.100;2022-08-19T07:13:12;16.55;;;12.10;;
14118;SDS011;7138;49.246;9.100;2022-08-19T07:15:39;16.75;;;10.90;;
14118;SDS011;7138;49.246;9.100;2022-08-19T07:18:06;16.45;;;11.43;;
14118;SDS011;7138;49.246;9.100;2022-08-19T07:20:32;16.00;;;12.05;;
14118;SDS011;7138;49.246;9.100;2022-08-19T07:22:58;15.20;;;11.18;;
14118;SDS011;7138;49.246;9.100;2022-08-19T07:25:24;14.75;;;11.15;;
14118;SDS011;7138;49.246;9.100;2022-08-19T07:27:50;14.05;;;10.68;;
14118;SDS011;7138;49.246;9.100;2022-08-19T07:30:16;14.70;;;11.43;;
14118;SDS011;7138;49.246;9.100;2022-08-19T07:32:42;17.90;;;11.27;;
14118;SDS011;7138;49.246;9.100;2022-08-19T07:35:09;16.30;;;11.65;;
14118;SDS011;7138;49.246;9.100;2022-08-19T07:37:35;14.35;;;11.32;;
14118;SDS011;7138;49.246;9.100;2022-08-19T07:40:02;14.88;;;11.25;;
14118;SDS011;7138;49.246;9.100;2022-08-19T07:42:30;14.15;;;10.55;;
14118;SDS011;7138;49.246;9.100;2022-08-19T07:44:56;16.00;;;11.30;;
14118;SDS011;7138;49.246;9.100;2022-08-19T07:47:23;16.55;;;10.98;;
14118;SDS011;7138;49.246;9.100;2022-08-19T07:49:49;12.80;;;9.93;;
14118;SDS011;7138;49.246;9.100;2022-08-19T07:52:16;15.07;;;10.60;;
14118;SDS011;7138;49.246;9.100;2022-08-19T07:54:43;13.90;;;10.25;;
14118;SDS011;7138;49.246;9.100;2022-08-19T07:57:09;12.77;;;9.13;;
14118;SDS011;7138;49.246;9.100;2022-08-19T07:59:35;13.60;;;9.77;;
14118;SDS011;7138;49.246;9.100;2022-08-19T08:02:01;13.40;;;10.85;;
14118;SDS011;7138;49.246;9.100;2022-08-19T08:04:29;16.08;;;10.02;;
14118;SDS011;7138;49.246;9.100;2022-08-19T08:07:14;15.20;;;10.98;;
14118;SDS011;7138;49.246;9.100;2022-08-19T08:10:03;15.98;;;10.38;;
14118;SDS011;7138;49.246;9.100;2022-08-19T08:12:32;13.18;;;9.35;;
14118;SDS011;7138;49.246;9.100;2022-08-19T08:15:06;12.40;;;9.80;;
14118;SDS011;7138;49.246;9.100;2022-08-19T08:17:38;13.10;;;9.98;;
14118;SDS011;7138;49.246;9.100;2022-08-19T08:20:05;13.23;;;10.75;;
14118;SDS011;7138;49.246;9.100;2022-08-19T08:22:33;14.75;;;10.30;;
14118;SDS011;7138;49.246;9.100;2022-08-19T08:25:19;12.75;;;9.57;;
14118;SDS011;7138;49.246;9.100;2022-08-19T08:27:48;13.88;;;9.50;;
14118;SDS011;7138;49.246;9.100;2022-08-19T08:30:16;11.82;;;9.95;;
14118;SDS011;7138;49.246;9.100;2022-08-19T08:35:12;14.77;;;9.55;;
14118;SDS011;7138;49.246;9.100;2022-08-19T08:37:42;13.73;;;10.13;;
14118;SDS011;7138;49.246;9.100;2022-08-19T08:40:14;14.23;;;8.98;;
14118;SDS011;7138;49.246;9.100;2022-08-19T08:42:48;12.95;;;9.40;;
14118;SDS011;7138;49.246;9.100;2022-08-19T08:45:25;15.73;;;9.25;;
14118;SDS011;7138;49.246;9.100;2022-08-19T08:47:53;11.23;;;8.82;;
14118;SDS011;7138;49.246;9.100;2022-08-19T08:50:27;12.55;;;8.60;;
14118;SDS011;7138;49.246;9.100;2022-08-19T08:53:03;11.57;;;8.13;;
14118;SDS011;7138;49.246;9.100;2022-08-19T08:55:33;12.07;;;8.45;;
14118;SDS011;7138;49.246;9.100;2022-08-19T08:58:00;12.05;;;7.72;;
14118;SDS011;7138;49.246;9.100;2022-08-19T09:00:32;12.35;;;8.05;;
14118;SDS011;7138;49.246;9.100;2022-08-19T09:05:34;9.18;;;7.15;;
14118;SDS011;7138;49.246;9.100;2022-08-19T09:08:13;10.35;;;6.72;;
14118;SDS011;7138;49.246;9.100;2022-08-19T09:10:54;11.57;;;6.75;;
14118;SDS011;7138;49.246;9.100;2022-08-19T09:13:24;9.25;;;6.50;;
14118;SDS011;7138;49.246;9.100;2022-08-19T09:16:05;9.15;;;6.68;;
14118;SDS011;7138;49.246;9.100;2022-08-19T09:18:40;12.32;;;6.53;;
14118;SDS011;7138;49.246;9.100;2022-08-19T09:21:11;11.00;;;6.53;;
14118;SDS011;7138;49.246;9.100;2022-08-19T09:23:39;9.43;;;6.22;;
14118;SDS011;7138;49.246;9.100;2022-08-19T09:26:09;7.88;;;5.80;;
14118;SDS011;7138;49.246;9.100;2022-08-19T09:28:38;9.82;;;6.15;;
14118;SDS011;7138;49.246;9.100;2022-08-19T09:33:34;9.07;;;6.25;;
14118;SDS011;7138;49.246;9.100;2022-08-19T09:36:03;7.70;;;5.63;;
14118;SDS011;7138;49.246;9.100;2022-08-19T09:38:32;7.95;;;5.22;;
14118;SDS011;7138;49.246;9.100;2022-08-19T09:41:03;7.47;;;5.40;;
14118;SDS011;7138;49.246;9.100;2022-08-19T09:43:30;9.05;;;5.10;;
14118;SDS011;7138;49.246;9.100;2022-08-19T09:45:56;8.32;;;5.65;;
14118;SDS011;7138;49.246;9.100;2022-08-19T09:48:22;8.20;;;5.78;;
14118;SDS011;7138;49.246;9.100;2022-08-19T09:50:47;8.95;;;5.20;;
14118;SDS011;7138;49.246;9.100;2022-08-19T09:53:16;6.75;;;4.60;;
14118;SDS011;7138;49.246;9.100;2022-08-19T09:55:42;10.18;;;5.60;;
14118;SDS011;7138;49.246;9.100;2022-08-19T09:58:09;9.68;;;6.03;;
14118;SDS011;7138;49.246;9.100;2022-08-19T10:00:36;8.55;;;5.20;;
14118;SDS011;7138;49.246;9.100;2022-08-19T10:03:03;8.48;;;5.00;;
14118;SDS011;7138;49.246;9.100;2022-08-19T10:05:29;7.80;;;4.95;;
14118;SDS011;7138;49.246;9.100;2022-08-19T10:08:13;8.60;;;4.57;;
14118;SDS011;7138;49.246;9.100;2022-08-19T10:10:40;6.38;;;4.03;;
14118;SDS011;7138;49.246;9.100;2022-08-19T10:13:12;8.10;;;4.45;;
14118;SDS011;7138;49.246;9.100;2022-08-19T10:15:41;5.82;;;4.18;;
14118;SDS011;7138;49.246;9.100;2022-08-19T10:18:07;5.70;;;4.20;;
14118;SDS011;7138;49.246;9.100;2022-08-19T10:20:33;8.85;;;5.32;;
14118;SDS011;7138;49.246;9.100;2022-08-19T10:23:00;6.90;;;4.97;;
14118;SDS011;7138;49.246;9.100;2022-08-19T10:25:26;7.60;;;4.38;;
14118;SDS011;7138;49.246;9.100;2022-08-19T10:27:52;9.80;;;5.00;;
14118;SDS011;7138;49.246;9.100;2022-08-19T10:30:20;5.90;;;4.47;;
14118;SDS011;7138;49.246;9.100;2022-08-19T10:32:46;8.57;;;4.35;;
14118;SDS011;7138;49.246;9.100;2022-08-19T10:35:12;7.28;;;3.80;;
14118;SDS011;7138;49.246;9.100;2022-08-19T10:37:39;5.22;;;3.30;;
14118;SDS011;7138;49.246;9.100;2022-08-19T10:40:06;7.68;;;3.50;;
14118;SDS011;7138;49.246;9.100;2022-08-19T10:42:35;5.35;;;3.53;;
14118;SDS011;7138;49.246;9.100;2022-08-19T10:45:01;5.72;;;3.42;;
14118;SDS011;7138;49.246;9.100;2022-08-19T10:47:32;7.80;;;3.70;;
14118;SDS011;7138;49.246;9.100;2022-08-19T10:49:58;5.63;;;3.47;;
14118;SDS011;7138;49.246;9.100;2022-08-19T10:52:44;7.28;;;4.03;;
14118;SDS011;7138;49.246;9.100;2022-08-19T10:55:13;5.65;;;3.38;;
14118;SDS011;7138;49.246;9.100;2022-08-19T10:57:57;8.02;;;4.03;;
14118;SDS011;7138;49.246;9.100;2022-08-19T11:00:23;6.93;;;4.30;;
14118;SDS011;7138;49.246;9.100;2022-08-19T11:02:52;5.00;;;3.95;;
14118;SDS011;7138;49.246;9.100;2022-08-19T11:05:18;6.18;;;4.03;;
14118;SDS011;7138;49.246;9.100;2022-08-19T11:07:44;5.38;;;3.78;;
14118;SDS011;7138;49.246;9.100;2022-08-19T11:10:11;4.93;;;3.58;;
14118;SDS011;7138;49.246;9.100;2022-08-19T11:12:39;6.75;;;3.90;;
14118;SDS011;7138;49.246;9.100;2022-08-19T11:15:06;5.95;;;3.80;;
14118;SDS011;7138;49.246;9.100;2022-08-19T11:17:36;6.47;;;4.00;;
14118;SDS011;7138;49.246;9.100;2022-08-19T11:20:07;6.50;;;3.55;;
14118;SDS011;7138;49.246;9.100;2022-08-19T11:22:35;4.68;;;2.90;;
14118;SDS011;7138;49.246;9.100;2022-08-19T11:25:01;4.85;;;3.40;;
14118;SDS011;7138;49.246;9.100;2022-08-19T11:27:27;7.03;;;3.72;;
14118;SDS011;7138;49.246;9.100;2022-08-19T11:29:54;7.20;;;3.85;;
14118;SDS011;7138;49.246;9.100;2022-08-19T11:32:20;5.97;;;4.57;;
14118;SDS011;7138;49.246;9.100;2022-08-19T11:34:46;6.68;;;4.53;;
14118;SDS011;7138;49.246;9.100;2022-08-19T11:37:13;5.30;;;4.10;;
14118;SDS011;7138;49.246;9.100;2022-08-19T11:39:39;5.90;;;4.13;;
14118;SDS011;7138;49.246;9.100;2022-08-19T11:42:05;6.30;;;3.85;;
14118;SDS011;7138;49.246;9.100;2022-08-19T11:44:50;6.15;;;3.85;;
14118;SDS011;7138;49.246;9.100;2022-08-19T11:47:20;5.43;;;4.00;;
14118;SDS011;7138;49.246;9.100;2022-08-19T11:52:14;6.40;;;4.25;;
14118;SDS011;7138;49.246;9.100;2022-08-19T11:54:40;4.82;;;3.75;;
14118;SDS011;7138;49.246;9.100;2022-08-19T11:57:06;6.32;;;3.78;;
14118;SDS011;7138;49.246;9.100;2022-08-19T11:59:31;6.47;;;3.75;;
14118;SDS011;7138;49.246;9.100;2022-08-19T12:01:57;7.53;;;3.92;;
14118;SDS011;7138;49.246;9.100;2022-08-19T12:04:24;7.00;;;3.97;;
14118;SDS011;7138;49.246;9.100;2022-08-19T12:06:50;5.53;;;3.90;;
14118;SDS011;7138;49.246;9.100;2022-08-19T12:09:17;7.28;;;4.00;;
14118;SDS011;7138;49.246;9.100;2022-08-19T12:11:43;7.15;;;4.00;;
14118;SDS011;7138;49.246;9.100;2022-08-19T12:14:10;7.07;;;4.40;;
14118;SDS011;7138;49.246;9.100;2022-08-19T12:16:39;6.05;;;3.83;;
14118;SDS011;7138;49.246;9.100;2022-08-19T12:19:06;6.45;;;4.40;;
14118;SDS011;7138;49.246;9.100;2022-08-19T12:21:33;5.90;;;4.20;;
14118;SDS011;7138;49.246;9.100;2022-08-19T12:24:01;7.75;;;4.35;;
14118;SDS011;7138;49.246;9.100;2022-08-19T12:26:31;5.15;;;4.05;;
14118;SDS011;7138;49.246;9.100;2022-08-19T12:28:57;6.03;;;3.67;;
14118;SDS011;7138;49.246;9.100;2022-08-19T12:31:24;5.55;;;3.78;;
14118;SDS011;7138;49.246;9.100;2022-08-19T12:33:50;4.93;;;3.55;;
14118;SDS011;7138;49.246;9.100;2022-08-19T12:36:17;4.90;;;3.78;;
14118;SDS011;7138;49.246;9.100;2022-08-19T12:38:43;4.65;;;3.47;;
14118;SDS011;7138;49.246;9.100;2022-08-19T12:41:10;5.97;;;3.85;;
14118;SDS011;7138;49.246;9.100;2022-08-19T12:43:41;4.95;;;3.53;;
14118;SDS011;7138;49.246;9.100;2022-08-19T12:46:07;5.32;;;3.55;;
14118;SDS011;7138;49.246;9.100;2022-08-19T12:48:35;5.45;;;3.63;;
14118;SDS011;7138;49.246;9.100;2022-08-19T12:51:07;6.15;;;3.80;;
14118;SDS011;7138;49.246;9.100;2022-08-19T12:53:37;7.03;;;3.40;;
14118;SDS011;7138;49.246;9.100;2022-08-19T12:56:03;4.70;;;3.47;;
14118;SDS011;7138;49.246;9.100;2022-08-19T12:58:30;5.80;;;3.67;;
14118;SDS011;7138;49.246;9.100;2022-08-19T13:00:58;5.93;;;3.53;;
14118;SDS011;7138;49.246;9.100;2022-08-19T13:03:24;5.57;;;3.50;;
14118;SDS011;7138;49.246;9.100;2022-08-19T13:08:20;4.25;;;3.40;;
14118;SDS011;7138;49.246;9.100;2022-08-19T13:10:46;5.20;;;3.40;;
14118;SDS011;7138;49.246;9.100;2022-08-19T13:13:11;5.25;;;3.50;;
14118;SDS011;7138;49.246;9.100;2022-08-19T13:15:38;7.53;;;4.10;;
14118;SDS011;7138;49.246;9.100;2022-08-19T13:18:08;6.00;;;3.80;;
14118;SDS011;7138;49.246;9.100;2022-08-19T13:20:36;5.87;;;3.40;;
14118;SDS011;7138;49.246;9.100;2022-08-19T13:25:31;7.40;;;3.70;;
14118;SDS011;7138;49.246;9.100;2022-08-19T13:27:58;5.45;;;3.55;;
14118;SDS011;7138;49.246;9.100;2022-08-19T13:30:25;4.65;;;3.30;;
14118;SDS011;7138;49.246;9.100;2022-08-19T13:33:12;5.20;;;3.72;;
14118;SDS011;7138;49.246;9.100;2022-08-19T13:35:42;6.45;;;3.75;;
14118;SDS011;7138;49.246;9.100;2022-08-19T13:38:12;4.30;;;3.25;;
14118;SDS011;7138;49.246;9.100;2022-08-19T13:40:39;6.80;;;3.85;;
14118;SDS011;7138;49.246;9.100;2022-08-19T13:43:06;4.88;;;3.60;;
14118;SDS011;7138;49.246;9.100;2022-08-19T13:45:34;6.05;;;3.55;;
14118;SDS011;7138;49.246;9.100;2022-08-19T13:48:01;5.53;;;4.18;;
14118;SDS011;7138;49.246;9.100;2022-08-19T13:50:35;6.55;;;3.90;;
14118;SDS011;7138;49.246;9.100;2022-08-19T13:53:06;5.57;;;3.80;;
14118;SDS011;7138;49.246;9.100;2022-08-19T13:55:33;6.00;;;4.55;;
14118;SDS011;7138;49.246;9.100;2022-08-19T13:58:01;5.95;;;4.03;;
14118;SDS011;7138;49.246;9.100;2022-08-19T14:00:29;6.43;;;4.32;;
14118;SDS011;7138;49.246;9.100;2022-08-19T14:02:59;7.32;;;5.07;;
14118;SDS011;7138;49.246;9.100;2022-08-19T14:05:26;6.60;;;4.70;;
14118;SDS011;7138;49.246;9.100;2022-08-19T14:07:55;6.03;;;5.10;;
14118;SDS011;7138;49.246;9.100;2022-08-19T14:10:22;8.13;;;5.13;;
14118;SDS011;7138;49.246;9.100;2022-08-19T14:12:49;7.47;;;5.90;;
14118;SDS011;7138;49.246;9.100;2022-08-19T14:15:20;7.13;;;5.65;;
14118;SDS011;7138;49.246;9.100;2022-08-19T14:17:48;6.95;;;5.00;;
14118;SDS011;7138;49.246;9.100;2022-08-19T14:20:14;10.18;;;6.47;;
14118;SDS011;7138;49.246;9.100;2022-08-19T14:22:41;9.35;;;6.85;;
14118;SDS011;7138;49.246;9.100;2022-08-19T14:25:11;7.10;;;5.35;;
14118;SDS011;7138;49.246;9.100;2022-08-19T14:27:40;6.07;;;5.20;;
14118;SDS011;7138;49.246;9.100;2022-08-19T14:30:07;7.50;;;5.63;;
14118;SDS011;7138;49.246;9.100;2022-08-19T14:32:36;6.95;;;5.50;;
14118;SDS011;7138;49.246;9.100;2022-08-19T14:35:02;7.10;;;5.78;;
14118;SDS011;7138;49.246;9.100;2022-08-19T14:37:29;6.53;;;5.75;;
14118;SDS011;7138;49.246;9.100;2022-08-19T14:39:55;7.65;;;6.00;;
14118;SDS011;7138;49.246;9.100;2022-08-19T14:42:22;7.00;;;6.05;;
14118;SDS011;7138;49.246;9.100;2022-08-19T14:44:48;7.38;;;5.70;;
14118;SDS011;7138;49.246;9.100;2022-08-19T14:47:14;6.07;;;4.60;;
14118;SDS011;7138;49.246;9.100;2022-08-19T14:49:39;5.57;;;4.85;;
14118;SDS011;7138;49.246;9.100;2022-08-19T14:52:05;5.88;;;4.75;;
14118;SDS011;7138;49.246;9.100;2022-08-19T14:54:31;6.70;;;4.97;;
14118;SDS011;7138;49.246;9.100;2022-08-19T14:56:57;6.53;;;5.30;;
14118;SDS011;7138;49.246;9.100;2022-08-19T14:59:25;7.22;;;5.53;;
14118;SDS011;7138;49.246;9.100;2022-08-19T15:01:51;9.15;;;6.15;;
14118;SDS011;7138;49.246;9.100;2022-08-19T15:04:16;8.38;;;6.15;;
14118;SDS011;7138;49.246;9.100;2022-08-19T15:06:42;8.30;;;6.10;;
14118;SDS011;7138;49.246;9.100;2022-08-19T15:09:08;6.65;;;5.45;;
14118;SDS011;7138;49.246;9.100;2022-08-19T15:11:35;7.43;;;5.10;;
14118;SDS011;7138;49.246;9.100;2022-08-19T15:14:02;7.82;;;5.22;;